createdAt,value
2018-04-13T00:01:04.019Z,73.60
2018-04-13T00:03:30.438Z,73.40
2018-04-13T00:05:56.981Z,73.60
2018-04-13T00:08:23.372Z,73.40
2018-04-13T00:10:49.762Z,73.70
2018-04-13T00:13:16.159Z,73.60
2018-04-13T00:15:43.292Z,73.60
2018-04-13T00:18:10.443Z,73.60
2018-04-13T00:20:37.618Z,74.30
2018-04-13T00:23:04.038Z,74.30
2018-04-13T00:25:30.431Z,74.80
2018-04-13T00:27:56.818Z,74.20
2018-04-13T00:30:23.242Z,74.30
2018-04-13T00:32:49.706Z,74.10
2018-04-13T00:35:16.107Z,74.00
2018-04-13T00:37:42.502Z,74.30
2018-04-13T00:40:08.887Z,74.50
2018-04-13T00:42:35.292Z,74.80
2018-04-13T00:45:02.477Z,75.20
2018-04-13T00:47:28.895Z,75.20
2018-04-13T00:49:55.290Z,75.50
2018-04-13T00:52:21.686Z,75.50
2018-04-13T00:54:48.071Z,75.60
2018-04-13T00:57:15.225Z,76.10
2018-04-13T00:59:42.396Z,76.20
2018-04-13T01:02:08.804Z,76.10
2018-04-13T01:04:35.953Z,76.90
2018-04-13T01:07:03.110Z,77.30
2018-04-13T01:09:30.301Z,77.30
2018-04-13T01:11:56.721Z,77.40
2018-04-13T01:14:23.116Z,77.30
2018-04-13T01:16:50.264Z,78.20
2018-04-13T01:19:17.416Z,77.90
2018-04-13T01:21:44.550Z,78.20
2018-04-13T01:24:10.937Z,78.20
2018-04-13T01:26:38.131Z,80.70
2018-04-13T01:29:04.576Z,80.60
2018-04-13T01:31:30.981Z,81.20
2018-04-13T01:33:57.352Z,82.10
2018-04-13T01:36:24.551Z,84.00
2018-04-13T01:38:50.955Z,84.00
2018-04-13T01:41:17.342Z,84.80
2018-04-13T01:43:43.726Z,85.50
2018-04-13T01:46:10.124Z,85.80
2018-04-13T01:48:36.514Z,86.20
2018-04-13T01:51:02.892Z,86.50
2018-04-13T01:53:30.018Z,86.90
2018-04-13T01:55:56.428Z,86.90
2018-04-13T01:58:22.888Z,87.00
2018-04-13T02:00:49.272Z,87.20
2018-04-13T02:03:15.674Z,87.80
2018-04-13T02:05:42.830Z,89.10
2018-04-13T02:08:09.971Z,90.00
2018-04-13T02:10:37.112Z,89.70
2018-04-13T02:13:04.246Z,90.00
2018-04-13T02:15:32.129Z,90.30
2018-04-13T02:17:58.611Z,90.30
2018-04-13T02:20:24.996Z,90.60
2018-04-13T02:22:52.134Z,91.20
2018-04-13T02:25:20.023Z,91.40
2018-04-13T02:27:47.167Z,91.70
2018-04-13T02:30:14.316Z,91.80
2018-04-13T02:32:41.457Z,92.00
2018-04-13T02:35:07.845Z,92.00
2018-04-13T02:37:34.329Z,92.30
2018-04-13T02:40:01.493Z,92.80
2018-04-13T02:42:27.897Z,92.70
2018-04-13T02:44:54.299Z,92.90
2018-04-13T02:47:20.709Z,93.00
2018-04-13T02:49:47.136Z,93.20
2018-04-13T02:52:14.309Z,93.50
2018-04-13T02:54:40.704Z,93.50
2018-04-13T02:57:07.857Z,93.90
2018-04-13T02:59:35.007Z,94.10
2018-04-13T03:02:01.421Z,94.00
2018-04-13T03:04:27.831Z,94.60
2018-04-13T03:06:54.224Z,94.60
2018-04-13T03:09:20.620Z,94.80
2018-04-13T03:11:47.015Z,95.00
2018-04-13T03:14:13.414Z,95.20
2018-04-13T03:16:39.850Z,95.20
2018-04-13T03:19:06.245Z,95.30
2018-04-13T03:21:32.661Z,95.20
2018-04-13T03:23:59.047Z,95.30
2018-04-13T03:26:25.440Z,95.30
2018-04-13T03:28:51.908Z,95.50
2018-04-13T03:31:18.325Z,95.60
2018-04-13T03:33:45.472Z,95.90
2018-04-13T03:36:12.616Z,95.90
2018-04-13T03:38:39.010Z,95.90
2018-04-13T03:41:05.416Z,96.00
2018-04-13T03:43:31.842Z,96.00
2018-04-13T03:45:58.229Z,96.00
2018-04-13T03:48:24.695Z,96.00
2018-04-13T03:50:51.103Z,95.90
2018-04-13T03:53:17.502Z,95.80
2018-04-13T03:55:43.887Z,95.80
2018-04-13T03:58:11.027Z,95.90
2018-04-13T04:00:38.172Z,96.10
2018-04-13T04:03:04.630Z,96.00
2018-04-13T04:05:31.760Z,96.00
2018-04-13T04:07:58.895Z,96.00
2018-04-13T04:10:25.298Z,96.00
2018-04-13T04:12:51.719Z,95.90
2018-04-13T04:15:18.116Z,95.90
2018-04-13T04:17:45.263Z,96.00
2018-04-13T04:20:24.787Z,96.00
2018-04-13T04:23:13.246Z,96.20
2018-04-13T04:25:57.892Z,96.00
2018-04-13T04:28:24.339Z,95.90
2018-04-13T04:30:51.754Z,95.80
2018-04-13T04:33:18.164Z,96.00
2018-04-13T04:35:44.556Z,95.90
2018-04-13T04:38:10.985Z,95.70
2018-04-13T04:40:37.390Z,95.40
2018-04-13T04:43:03.786Z,95.10
2018-04-13T04:45:30.266Z,95.00
2018-04-13T04:47:57.294Z,95.10
2018-04-13T04:50:23.742Z,95.30
2018-04-13T04:52:50.206Z,95.40
2018-04-13T04:55:17.408Z,94.90
2018-04-13T04:57:43.834Z,94.90
2018-04-13T05:00:10.377Z,95.00
2018-04-13T05:02:36.822Z,94.60
2018-04-13T05:05:03.236Z,94.30
2018-04-13T05:07:29.650Z,94.10
2018-04-13T05:09:56.073Z,94.30
2018-04-13T05:12:23.208Z,94.70
2018-04-13T05:14:49.600Z,94.70
2018-04-13T05:17:16.009Z,94.90
2018-04-13T05:19:42.431Z,94.50
2018-04-13T05:22:08.851Z,94.50
2018-04-13T05:24:36.016Z,94.60
2018-04-13T05:27:02.404Z,94.60
2018-04-13T05:29:28.803Z,94.60
2018-04-13T05:31:55.200Z,94.50
2018-04-13T05:34:22.363Z,95.00
2018-04-13T05:36:48.795Z,95.00
2018-04-13T05:39:15.225Z,95.00
2018-04-13T05:41:41.622Z,95.10
2018-04-13T05:44:08.212Z,95.30
2018-04-13T05:46:34.621Z,95.40
2018-04-13T05:49:01.801Z,95.50
2018-04-13T05:51:28.230Z,95.50
2018-04-13T05:53:54.618Z,95.30
2018-04-13T05:56:21.756Z,95.40
2018-04-13T05:58:48.153Z,95.40
2018-04-13T06:01:14.542Z,95.20
2018-04-13T06:03:40.972Z,95.10
2018-04-13T06:06:08.198Z,95.20
2018-04-13T06:08:34.565Z,95.20
2018-04-13T06:11:01.698Z,95.10
2018-04-13T06:13:28.131Z,95.10
2018-04-13T06:15:54.563Z,95.00
2018-04-13T06:18:20.989Z,94.90
2018-04-13T06:20:47.400Z,94.70
2018-04-13T06:23:13.851Z,94.60
2018-04-13T06:25:40.336Z,94.50
2018-04-13T06:28:06.768Z,94.60
2018-04-13T06:30:33.399Z,94.50
2018-04-13T06:33:00.165Z,94.50
2018-04-13T06:35:26.585Z,94.40
2018-04-13T06:37:52.993Z,94.30
2018-04-13T06:40:19.460Z,94.30
2018-04-13T06:42:45.929Z,94.10
2018-04-13T06:45:12.379Z,94.10
2018-04-13T06:47:39.546Z,94.30
2018-04-13T06:50:05.990Z,94.10
2018-04-13T06:52:32.391Z,93.90
2018-04-13T06:54:58.804Z,93.90
2018-04-13T06:57:25.241Z,93.70
2018-04-13T06:59:51.725Z,93.90
2018-04-13T07:02:18.166Z,93.70
2018-04-13T07:04:44.624Z,93.60
2018-04-13T07:07:11.096Z,93.50
2018-04-13T07:09:38.248Z,93.20
2018-04-13T07:12:05.399Z,93.10
2018-04-13T07:14:32.544Z,92.90
2018-04-13T07:16:59.717Z,92.30
2018-04-13T07:19:26.104Z,92.30
2018-04-13T07:21:52.492Z,92.30
2018-04-13T07:24:18.938Z,92.20
2018-04-13T07:26:45.320Z,92.20
2018-04-13T07:29:11.715Z,92.00
2018-04-13T07:31:38.171Z,91.70
2018-04-13T07:34:04.645Z,91.20
2018-04-13T07:36:31.775Z,90.90
2018-04-13T07:38:58.916Z,90.60
2018-04-13T07:41:25.309Z,90.60
2018-04-13T07:43:51.708Z,90.50
2018-04-13T07:46:18.183Z,90.20
2018-04-13T07:48:44.583Z,89.70
2018-04-13T07:51:10.989Z,89.20
2018-04-13T07:53:38.170Z,88.10
2018-04-13T07:56:04.578Z,88.10
2018-04-13T07:58:31.723Z,89.00
2018-04-13T08:00:58.175Z,88.90
2018-04-13T08:03:24.576Z,89.30
2018-04-13T08:05:51.052Z,88.10
2018-04-13T08:08:17.525Z,87.90
2018-04-13T08:10:44.227Z,87.40
2018-04-13T08:13:11.181Z,86.00
2018-04-13T08:15:37.616Z,86.60
2018-04-13T08:18:04.120Z,86.90
2018-04-13T08:20:30.624Z,86.80
2018-04-13T08:22:57.827Z,86.00
2018-04-13T08:25:24.254Z,86.00
2018-04-13T08:27:50.721Z,85.60
2018-04-13T08:30:17.133Z,84.70
2018-04-13T08:32:43.521Z,84.00
2018-04-13T08:35:10.681Z,81.50
2018-04-13T08:37:38.035Z,81.00
2018-04-13T08:40:04.466Z,81.00
2018-04-13T08:42:30.894Z,81.70
2018-04-13T08:44:58.074Z,80.80
2018-04-13T08:47:24.553Z,80.80
2018-04-13T08:49:50.974Z,80.60
2018-04-13T08:52:17.376Z,80.00
2018-04-13T08:54:43.808Z,79.70
2018-04-13T08:57:10.291Z,77.70
2018-04-13T08:59:36.684Z,77.60
2018-04-13T09:02:03.088Z,78.40
2018-04-13T09:04:30.226Z,78.50
2018-04-13T09:06:57.362Z,76.70
2018-04-13T09:09:23.776Z,77.10
2018-04-13T09:11:50.191Z,76.60
2018-04-13T09:14:16.611Z,74.90
2018-04-13T09:16:43.007Z,74.50
2018-04-13T09:19:09.415Z,75.60
2018-04-13T09:21:35.817Z,75.50
2018-04-13T09:24:02.237Z,74.90
2018-04-13T09:26:28.622Z,74.30
2018-04-13T09:28:55.032Z,72.30
2018-04-13T09:31:21.451Z,73.10
2018-04-13T09:33:47.887Z,72.50
2018-04-13T09:36:14.309Z,72.20
2018-04-13T09:38:40.722Z,72.90
2018-04-13T09:41:07.153Z,73.90
2018-04-13T09:43:34.313Z,70.30
2018-04-13T09:46:00.738Z,70.30
2018-04-13T09:48:27.168Z,70.90
2018-04-13T09:50:53.590Z,70.50
2018-04-13T09:53:20.751Z,70.50
2018-04-13T09:55:47.884Z,68.30
2018-04-13T09:58:15.081Z,68.60
2018-04-13T10:00:41.528Z,68.70
2018-04-13T10:03:13.944Z,65.80
2018-04-13T10:05:41.826Z,67.60
2018-04-13T10:08:09.011Z,66.40
2018-04-13T10:10:35.410Z,66.50
2018-04-13T10:13:02.574Z,69.40
2018-04-13T10:15:28.986Z,69.40
2018-04-13T10:17:56.116Z,67.60
2018-04-13T10:20:28.311Z,66.50
2018-04-13T10:22:55.478Z,65.10
2018-04-13T10:25:21.917Z,65.20
2018-04-13T10:27:48.363Z,65.70
2018-04-13T10:30:14.767Z,66.60
2018-04-13T10:32:41.931Z,68.50
2018-04-13T10:35:08.430Z,68.40
2018-04-13T10:37:35.582Z,68.10
2018-04-13T10:40:02.764Z,68.10
2018-04-13T10:42:29.171Z,68.10
2018-04-13T10:44:56.315Z,64.40
2018-04-13T10:47:24.278Z,64.00
2018-04-13T10:49:51.408Z,65.30
2018-04-13T10:52:17.831Z,65.20
2018-04-13T10:54:44.252Z,64.00
2018-04-13T10:57:10.664Z,63.50
2018-04-13T10:59:37.136Z,63.40
2018-04-13T11:02:03.547Z,60.60
2018-04-13T11:04:29.946Z,59.40
2018-04-13T11:06:57.094Z,59.40
2018-04-13T11:09:24.237Z,60.00
2018-04-13T11:11:51.387Z,60.00
2018-04-13T11:14:18.553Z,60.60
2018-04-13T11:16:45.695Z,61.20
2018-04-13T11:19:12.871Z,60.00
2018-04-13T11:21:39.288Z,59.90
2018-04-13T11:24:06.429Z,60.60
2018-04-13T11:26:33.547Z,60.20
2018-04-13T11:28:59.948Z,60.10
2018-04-13T11:31:26.326Z,61.00
2018-04-13T11:33:52.712Z,60.50
2018-04-13T11:36:19.108Z,59.70
2018-04-13T11:38:46.360Z,57.80
2018-04-13T11:41:12.772Z,57.90
2018-04-13T11:43:40.652Z,56.50
2018-04-13T11:46:07.777Z,56.90
2018-04-13T11:48:34.159Z,56.80
2018-04-13T11:51:01.412Z,58.00
2018-04-13T11:53:27.818Z,58.00
2018-04-13T11:55:54.957Z,58.10
2018-04-13T11:58:22.839Z,58.00
2018-04-13T12:00:50.017Z,57.60
2018-04-13T12:03:16.407Z,57.60
2018-04-13T12:05:43.553Z,65.70
2018-04-13T12:08:10.700Z,68.00
2018-04-13T12:10:37.104Z,67.30
2018-04-13T12:13:03.536Z,72.20
2018-04-13T12:15:29.954Z,70.40
2018-04-13T12:17:56.364Z,75.90
2018-04-13T12:20:23.505Z,74.70
2018-04-13T12:22:50.684Z,76.70
2018-04-13T12:25:17.079Z,76.70
2018-04-13T12:27:43.493Z,78.10
2018-04-13T12:30:09.908Z,79.30
2018-04-13T12:32:36.393Z,79.60
2018-04-13T12:35:03.533Z,78.70
2018-04-13T12:37:30.705Z,81.60
2018-04-13T12:39:57.827Z,72.80
2018-04-13T12:42:24.244Z,72.60
2018-04-13T12:44:50.626Z,76.10
2018-04-13T12:47:19.111Z,80.70
2018-04-13T12:49:45.513Z,83.20
2018-04-13T12:52:12.661Z,86.00
2018-04-13T12:54:41.983Z,88.70
2018-04-13T12:57:09.112Z,88.50
2018-04-13T12:59:36.814Z,88.70
2018-04-13T13:02:03.240Z,88.70
2018-04-13T13:04:29.643Z,88.70
2018-04-13T13:06:57.039Z,86.90
2018-04-13T13:09:23.466Z,86.90
2018-04-13T13:11:49.895Z,86.00
2018-04-13T13:14:16.295Z,86.00
2018-04-13T13:16:42.690Z,85.50
2018-04-13T13:19:09.093Z,85.40
2018-04-13T13:21:35.624Z,86.30
2018-04-13T13:24:02.085Z,86.20
2018-04-13T13:26:28.504Z,84.70
2018-04-13T13:28:54.921Z,85.00
2018-04-13T13:31:21.414Z,85.20
2018-04-13T13:33:47.824Z,84.40
2018-04-13T13:36:14.259Z,82.50
2018-04-13T13:38:40.670Z,81.70
2018-04-13T13:41:07.367Z,77.70
2018-04-13T13:43:34.541Z,78.60
2018-04-13T13:46:00.942Z,77.90
2018-04-13T13:48:28.166Z,78.70
2018-04-13T13:50:54.591Z,78.00
2018-04-13T13:53:20.994Z,77.20
2018-04-13T13:55:47.396Z,77.30
2018-04-13T13:58:13.803Z,76.30
2018-04-13T14:00:40.222Z,74.40
2018-04-13T14:03:06.629Z,76.00
2018-04-13T14:05:33.028Z,73.00
2018-04-13T14:08:00.178Z,74.20
2018-04-13T14:10:26.568Z,73.90
2018-04-13T14:12:52.967Z,75.70
2018-04-13T14:15:19.374Z,74.90
2018-04-13T14:17:46.526Z,75.30
2018-04-13T14:20:13.641Z,72.80
2018-04-13T14:22:40.048Z,72.80
2018-04-13T14:25:06.508Z,72.30
2018-04-13T14:27:32.908Z,71.60
2018-04-13T14:29:59.300Z,69.30
2018-04-13T14:32:25.700Z,72.30
2018-04-13T14:34:52.084Z,68.30
2018-04-13T14:37:19.262Z,65.60
2018-04-13T14:39:45.664Z,65.60
2018-04-13T14:42:12.807Z,64.50
2018-04-13T14:44:41.001Z,63.10
2018-04-13T14:47:07.381Z,63.20
2018-04-13T14:49:33.857Z,64.90
2018-04-13T14:52:00.288Z,65.80
2018-04-13T14:54:27.433Z,65.90
2018-04-13T14:56:54.579Z,63.00
2018-04-13T14:59:21.705Z,65.20
2018-04-13T15:01:48.116Z,65.20
2018-04-13T15:04:14.534Z,61.90
2018-04-13T15:06:40.932Z,62.90
2018-04-13T15:09:08.081Z,63.20
2018-04-13T15:11:35.206Z,58.90
2018-04-13T15:14:01.609Z,58.80
2018-04-13T15:16:28.036Z,59.20
2018-04-13T15:18:54.429Z,60.80
2018-04-13T15:21:21.550Z,55.00
2018-04-13T15:23:47.944Z,54.80
2018-04-13T15:26:14.360Z,54.90
2018-04-13T15:28:40.761Z,53.90
2018-04-13T15:31:07.238Z,53.40
2018-04-13T15:33:33.671Z,56.70
2018-04-13T15:36:00.076Z,53.10
2018-04-13T15:38:27.311Z,53.20
2018-04-13T15:40:53.718Z,53.20
2018-04-13T15:43:20.103Z,50.50
2018-04-13T15:45:47.266Z,50.40
2018-04-13T15:48:13.665Z,50.30
2018-04-13T15:50:40.803Z,51.60
2018-04-13T15:53:07.184Z,50.90
2018-04-13T15:55:33.584Z,50.50
2018-04-13T15:58:00.795Z,52.20
2018-04-13T16:00:27.218Z,52.10
2018-04-13T16:02:53.608Z,49.90
2018-04-13T16:05:20.737Z,51.60
2018-04-13T16:07:47.114Z,51.50
2018-04-13T16:10:13.514Z,50.80
2018-04-13T16:12:40.648Z,52.10
2018-04-13T16:15:07.092Z,51.50
2018-04-13T16:17:33.526Z,51.30
2018-04-13T16:19:59.972Z,50.60
2018-04-13T16:22:27.136Z,51.60
2018-04-13T16:24:54.269Z,50.40
2018-04-13T16:27:21.399Z,53.20
2018-04-13T16:29:47.822Z,53.20
2018-04-13T16:32:14.238Z,50.90
2018-04-13T16:34:40.623Z,53.20
2018-04-13T16:37:07.764Z,54.20
2018-04-13T16:39:34.967Z,54.10
2018-04-13T16:42:01.400Z,54.10
2018-04-13T16:44:27.829Z,53.60
2018-04-13T16:46:54.239Z,53.20
2018-04-13T16:49:20.692Z,55.00
2018-04-13T16:51:47.106Z,55.10
2018-04-13T16:54:14.240Z,55.00
2018-04-13T16:56:41.368Z,53.70
2018-04-13T16:59:07.775Z,53.60
2018-04-13T17:01:34.237Z,55.20
2018-04-13T17:04:00.647Z,54.20
2018-04-13T17:06:27.044Z,54.40
2018-04-13T17:08:53.441Z,53.30
2018-04-13T17:11:19.891Z,55.30
2018-04-13T17:13:47.035Z,57.00
2018-04-13T17:16:14.183Z,57.40
2018-04-13T17:18:41.318Z,58.20
2018-04-13T17:21:07.716Z,58.00
2018-04-13T17:23:34.839Z,61.60
2018-04-13T17:26:01.256Z,60.60
2018-04-13T17:28:28.401Z,61.90
2018-04-13T17:30:55.530Z,62.00
2018-04-13T17:33:21.930Z,62.00
2018-04-13T17:35:48.318Z,60.70
2018-04-13T17:38:15.451Z,59.60
2018-04-13T17:40:41.903Z,59.50
2018-04-13T17:43:09.070Z,59.80
2018-04-13T17:45:36.226Z,63.10
2018-04-13T17:48:02.630Z,63.10
2018-04-13T17:50:29.845Z,69.70
2018-04-13T17:52:56.270Z,69.70
2018-04-13T17:55:22.686Z,71.10
2018-04-13T17:57:49.088Z,68.40
2018-04-13T18:00:16.218Z,61.50
2018-04-13T18:02:42.668Z,61.50
2018-04-13T18:05:09.835Z,73.10
2018-04-13T18:07:36.277Z,73.10
2018-04-13T18:10:02.738Z,78.10
2018-04-13T18:12:29.128Z,79.70
2018-04-13T18:14:56.310Z,86.40
2018-04-13T18:17:22.703Z,86.30
2018-04-13T18:19:49.918Z,90.60
2018-04-13T18:22:16.307Z,90.60
2018-04-13T18:24:42.680Z,91.40
2018-04-13T18:27:09.071Z,91.70
2018-04-13T18:29:35.467Z,91.80
2018-04-13T18:32:01.878Z,91.90
2018-04-13T18:34:29.007Z,92.50
2018-04-13T18:36:55.429Z,92.50
2018-04-13T18:39:22.608Z,92.50
2018-04-13T18:41:49.039Z,92.50
2018-04-13T18:44:16.930Z,91.60
2018-04-13T18:46:43.311Z,91.40
2018-04-13T18:49:09.716Z,91.40
2018-04-13T18:51:36.856Z,91.30
2018-04-13T18:54:03.977Z,91.60
2018-04-13T18:56:30.433Z,91.50
2018-04-13T18:58:57.583Z,91.90
2018-04-13T19:01:24.723Z,92.00
2018-04-13T19:03:51.120Z,92.00
2018-04-13T19:06:17.537Z,92.10
2018-04-13T19:08:44.068Z,92.00
2018-04-13T19:11:10.461Z,92.00
2018-04-13T19:13:37.615Z,91.80
2018-04-13T19:16:04.113Z,91.70
2018-04-13T19:18:30.538Z,92.00
2018-04-13T19:20:56.980Z,91.60
2018-04-13T19:23:23.371Z,91.20
2018-04-13T19:25:50.506Z,90.50
2018-04-13T19:28:17.631Z,91.10
2018-04-13T19:30:44.026Z,91.30
2018-04-13T19:33:10.441Z,91.50
2018-04-13T19:35:36.872Z,91.40
2018-04-13T19:38:03.267Z,90.60
2018-04-13T19:40:29.694Z,90.60
2018-04-13T19:42:57.631Z,90.40
2018-04-13T19:45:24.133Z,90.30
2018-04-13T19:47:50.584Z,90.30
2018-04-13T19:50:17.044Z,90.00
2018-04-13T19:52:43.522Z,90.10
2018-04-13T19:55:09.936Z,90.20
2018-04-13T19:57:36.335Z,90.60
2018-04-13T20:00:02.784Z,90.70
2018-04-13T20:02:29.238Z,90.40
2018-04-13T20:04:57.267Z,91.10
2018-04-13T20:07:23.671Z,91.10
2018-04-13T20:09:50.225Z,91.70
2018-04-13T20:12:18.502Z,92.60
2018-04-13T20:14:44.897Z,93.10
2018-04-13T20:17:12.044Z,92.10
2018-04-13T20:19:38.440Z,92.10
2018-04-13T20:22:04.857Z,91.70
2018-04-13T20:24:31.269Z,91.40
2018-04-13T20:26:57.667Z,91.30
2018-04-13T20:29:24.099Z,91.40
2018-04-13T20:31:51.970Z,91.90
2018-04-13T20:34:18.392Z,91.90
2018-04-13T20:36:44.788Z,91.70
2018-04-13T20:39:12.170Z,91.50
2018-04-13T20:41:38.560Z,91.60
2018-04-13T20:44:05.020Z,91.90
2018-04-13T20:46:31.407Z,91.90
2018-04-13T20:48:58.535Z,92.00
2018-04-13T20:51:24.930Z,92.00
2018-04-13T20:53:52.104Z,92.40
2018-04-13T20:56:18.507Z,92.40
2018-04-13T20:58:44.918Z,92.10
2018-04-13T21:01:11.318Z,92.20
2018-04-13T21:03:37.715Z,92.70
2018-04-13T21:06:04.116Z,92.30
2018-04-13T21:08:30.588Z,92.60
2018-04-13T21:10:56.989Z,92.90
2018-04-13T21:13:23.412Z,93.90
2018-04-13T21:15:50.282Z,94.20
2018-04-13T21:18:16.781Z,94.40
2018-04-13T21:20:43.912Z,94.30
2018-04-13T21:23:11.044Z,94.10
2018-04-13T21:25:38.928Z,93.60
2018-04-13T21:28:05.322Z,93.60
2018-04-13T21:30:31.742Z,93.40
2018-04-13T21:32:58.131Z,92.70
2018-04-13T21:35:25.282Z,92.20
2018-04-13T21:37:52.436Z,92.20
2018-04-13T21:40:19.602Z,92.40
2018-04-13T21:42:46.727Z,92.20
2018-04-13T21:45:13.850Z,92.00
2018-04-13T21:47:40.251Z,92.00
2018-04-13T21:50:06.671Z,91.70
2018-04-13T21:52:33.043Z,91.70
2018-04-13T21:54:59.434Z,91.90
2018-04-13T21:57:25.819Z,92.60
2018-04-13T21:59:52.199Z,93.10
2018-04-13T22:02:18.602Z,93.20
2018-04-13T22:04:45.776Z,93.10
2018-04-13T22:07:12.174Z,93.10
2018-04-13T22:09:38.568Z,92.80
2018-04-13T22:12:05.021Z,92.70
2018-04-13T22:14:44.371Z,92.40
2018-04-13T22:17:10.848Z,92.40
2018-04-13T22:19:37.316Z,92.70
2018-04-13T22:22:04.560Z,92.80
2018-04-13T22:24:30.967Z,92.90
2018-04-13T22:26:57.370Z,93.10
2018-04-13T22:29:24.502Z,93.90
2018-04-13T22:31:50.922Z,93.90
2018-04-13T22:34:17.312Z,94.00
2018-04-13T22:36:43.700Z,94.10
2018-04-13T22:39:10.116Z,93.70
2018-04-13T22:41:36.519Z,93.70
2018-04-13T22:44:02.920Z,93.50
2018-04-13T22:46:30.059Z,92.80
2018-04-13T22:48:57.194Z,92.10
2018-04-13T22:51:23.607Z,92.10
2018-04-13T22:53:49.986Z,92.00
2018-04-13T22:56:17.102Z,92.00
2018-04-13T22:58:45.179Z,92.30
2018-04-13T23:01:13.049Z,92.00
2018-04-13T23:03:39.446Z,92.00
2018-04-13T23:06:05.835Z,91.60
2018-04-13T23:08:32.983Z,92.60
2018-04-13T23:11:00.118Z,92.40
2018-04-13T23:13:26.520Z,92.30
2018-04-13T23:15:52.931Z,92.60
2018-04-13T23:18:19.509Z,92.40
2018-04-13T23:20:45.901Z,92.20
2018-04-13T23:23:12.389Z,92.10
2018-04-13T23:25:39.630Z,93.30
2018-04-13T23:28:06.015Z,93.30
2018-04-13T23:30:33.171Z,92.90
2018-04-13T23:32:59.572Z,92.90
2018-04-13T23:35:26.706Z,92.90
2018-04-13T23:37:53.103Z,92.90
2018-04-13T23:40:19.513Z,92.60
2018-04-13T23:42:45.933Z,92.50
2018-04-13T23:45:12.330Z,92.30
2018-04-13T23:47:38.728Z,92.10
2018-04-13T23:50:05.143Z,92.10
2018-04-13T23:52:31.538Z,92.20
2018-04-13T23:54:58.667Z,93.10
2018-04-13T23:57:25.831Z,93.30
2018-04-13T23:59:53.010Z,93.50
